sensor_id;sensor_type;location;lat;lon;timestamp;P1;durP1;ratioP1;P2;durP2;ratioP2
16033;SDS011;8121;51.418;6.998;2023-04-29T00:03:46;26.30;;;12.97;;
16033;SDS011;8121;51.418;6.998;2023-04-29T00:13:48;16.03;;;8.63;;
16033;SDS011;8121;51.418;6.998;2023-04-29T00:23:50;26.03;;;13.40;;
16033;SDS011;8121;51.418;6.998;2023-04-29T00:33:53;21.03;;;11.10;;
16033;SDS011;8121;51.418;6.998;2023-04-29T00:43:55;17.10;;;9.83;;
16033;SDS011;8121;51.418;6.998;2023-04-29T00:53:58;21.93;;;11.10;;
16033;SDS011;8121;51.418;6.998;2023-04-29T01:03:59;25.13;;;11.03;;
16033;SDS011;8121;51.418;6.998;2023-04-29T01:14:02;19.17;;;10.40;;
16033;SDS011;8121;51.418;6.998;2023-04-29T01:24:06;25.50;;;11.90;;
16033;SDS011;8121;51.418;6.998;2023-04-29T01:34:08;25.87;;;12.87;;
16033;SDS011;8121;51.418;6.998;2023-04-29T01:44:14;31.87;;;14.03;;
16033;SDS011;8121;51.418;6.998;2023-04-29T01:54:16;39.43;;;17.00;;
16033;SDS011;8121;51.418;6.998;2023-04-29T02:04:19;52.40;;;19.37;;
16033;SDS011;8121;51.418;6.998;2023-04-29T02:14:21;70.43;;;28.10;;
16033;SDS011;8121;51.418;6.998;2023-04-29T02:24:23;65.87;;;23.53;;
16033;SDS011;8121;51.418;6.998;2023-04-29T02:34:25;60.73;;;24.37;;
16033;SDS011;8121;51.418;6.998;2023-04-29T02:44:28;50.03;;;18.53;;
16033;SDS011;8121;51.418;6.998;2023-04-29T02:54:30;43.77;;;17.87;;
16033;SDS011;8121;51.418;6.998;2023-04-29T03:04:33;38.80;;;16.53;;
16033;SDS011;8121;51.418;6.998;2023-04-29T03:14:34;36.10;;;14.03;;
16033;SDS011;8121;51.418;6.998;2023-04-29T03:24:37;31.30;;;14.47;;
16033;SDS011;8121;51.418;6.998;2023-04-29T03:34:39;28.23;;;12.73;;
16033;SDS011;8121;51.418;6.998;2023-04-29T03:44:42;32.37;;;15.50;;
16033;SDS011;8121;51.418;6.998;2023-04-29T03:54:43;32.00;;;14.37;;
16033;SDS011;8121;51.418;6.998;2023-04-29T04:04:46;16.63;;;9.13;;
16033;SDS011;8121;51.418;6.998;2023-04-29T04:14:48;29.43;;;14.27;;
16033;SDS011;8121;51.418;6.998;2023-04-29T04:24:51;35.70;;;16.80;;
16033;SDS011;8121;51.418;6.998;2023-04-29T04:34:54;25.77;;;14.47;;
16033;SDS011;8121;51.418;6.998;2023-04-29T04:44:57;16.33;;;8.80;;
16033;SDS011;8121;51.418;6.998;2023-04-29T04:54:59;18.50;;;10.57;;
16033;SDS011;8121;51.418;6.998;2023-04-29T05:05:02;29.93;;;12.93;;
16033;SDS011;8121;51.418;6.998;2023-04-29T05:15:04;16.80;;;9.63;;
16033;SDS011;8121;51.418;6.998;2023-04-29T05:25:08;23.80;;;13.47;;
16033;SDS011;8121;51.418;6.998;2023-04-29T05:35:10;13.53;;;7.03;;
16033;SDS011;8121;51.418;6.998;2023-04-29T05:45:13;22.23;;;11.93;;
16033;SDS011;8121;51.418;6.998;2023-04-29T05:55:15;29.93;;;15.87;;
16033;SDS011;8121;51.418;6.998;2023-04-29T06:05:18;17.20;;;11.33;;
16033;SDS011;8121;51.418;6.998;2023-04-29T06:15:19;21.17;;;10.57;;
16033;SDS011;8121;51.418;6.998;2023-04-29T06:25:23;19.93;;;11.00;;
16033;SDS011;8121;51.418;6.998;2023-04-29T06:35:24;13.47;;;7.70;;
16033;SDS011;8121;51.418;6.998;2023-04-29T06:45:27;22.30;;;11.40;;
16033;SDS011;8121;51.418;6.998;2023-04-29T06:55:29;18.03;;;11.33;;
16033;SDS011;8121;51.418;6.998;2023-04-29T07:05:44;18.17;;;11.70;;
16033;SDS011;8121;51.418;6.998;2023-04-29T07:15:54;7.87;;;6.53;;
16033;SDS011;8121;51.418;6.998;2023-04-29T07:26:08;13.37;;;9.23;;
16033;SDS011;8121;51.418;6.998;2023-04-29T07:36:11;22.07;;;10.20;;
16033;SDS011;8121;51.418;6.998;2023-04-29T07:46:13;26.37;;;11.83;;
16033;SDS011;8121;51.418;6.998;2023-04-29T07:56:17;25.90;;;13.20;;
16033;SDS011;8121;51.418;6.998;2023-04-29T08:06:20;14.97;;;9.17;;
16033;SDS011;8121;51.418;6.998;2023-04-29T08:16:22;32.00;;;16.70;;
16033;SDS011;8121;51.418;6.998;2023-04-29T08:26:26;26.07;;;13.53;;
16033;SDS011;8121;51.418;6.998;2023-04-29T08:36:28;40.67;;;18.00;;
16033;SDS011;8121;51.418;6.998;2023-04-29T08:46:31;27.93;;;15.40;;
16033;SDS011;8121;51.418;6.998;2023-04-29T08:56:32;27.17;;;14.20;;
16033;SDS011;8121;51.418;6.998;2023-04-29T09:06:36;22.83;;;9.67;;
16033;SDS011;8121;51.418;6.998;2023-04-29T09:27:27;32.50;;;16.67;;
16033;SDS011;8121;51.418;6.998;2023-04-29T09:37:44;51.80;;;25.00;;
16033;SDS011;8121;51.418;6.998;2023-04-29T09:48:20;36.47;;;20.50;;
16033;SDS011;8121;51.418;6.998;2023-04-29T09:58:26;43.60;;;22.10;;
16033;SDS011;8121;51.418;6.998;2023-04-29T10:08:30;44.97;;;20.60;;
16033;SDS011;8121;51.418;6.998;2023-04-29T10:18:34;49.83;;;23.33;;
16033;SDS011;8121;51.418;6.998;2023-04-29T10:28:37;24.70;;;13.37;;
16033;SDS011;8121;51.418;6.998;2023-04-29T10:38:42;39.00;;;20.70;;
16033;SDS011;8121;51.418;6.998;2023-04-29T10:48:46;34.77;;;19.70;;
16033;SDS011;8121;51.418;6.998;2023-04-29T10:58:48;25.97;;;15.17;;
16033;SDS011;8121;51.418;6.998;2023-04-29T11:09:01;24.97;;;15.40;;
16033;SDS011;8121;51.418;6.998;2023-04-29T11:19:04;27.93;;;16.07;;
16033;SDS011;8121;51.418;6.998;2023-04-29T11:29:19;26.30;;;17.50;;
16033;SDS011;8121;51.418;6.998;2023-04-29T11:39:58;31.50;;;16.33;;
16033;SDS011;8121;51.418;6.998;2023-04-29T11:50:14;14.10;;;9.60;;
16033;SDS011;8121;51.418;6.998;2023-04-29T12:00:18;24.93;;;16.73;;
16033;SDS011;8121;51.418;6.998;2023-04-29T12:10:21;10.87;;;8.07;;
16033;SDS011;8121;51.418;6.998;2023-04-29T12:20:24;8.70;;;6.57;;
16033;SDS011;8121;51.418;6.998;2023-04-29T12:30:29;7.90;;;7.10;;
16033;SDS011;8121;51.418;6.998;2023-04-29T12:40:34;19.50;;;12.00;;
16033;SDS011;8121;51.418;6.998;2023-04-29T12:50:37;12.90;;;10.17;;
16033;SDS011;8121;51.418;6.998;2023-04-29T13:00:40;13.27;;;8.53;;
16033;SDS011;8121;51.418;6.998;2023-04-29T13:10:42;9.97;;;7.90;;
16033;SDS011;8121;51.418;6.998;2023-04-29T13:20:44;14.57;;;7.00;;
16033;SDS011;8121;51.418;6.998;2023-04-29T13:30:47;7.50;;;6.30;;
16033;SDS011;8121;51.418;6.998;2023-04-29T13:40:49;8.50;;;5.00;;
16033;SDS011;8121;51.418;6.998;2023-04-29T13:50:52;10.90;;;8.10;;
16033;SDS011;8121;51.418;6.998;2023-04-29T14:00:54;10.73;;;7.73;;
16033;SDS011;8121;51.418;6.998;2023-04-29T14:10:57;6.10;;;4.50;;
16033;SDS011;8121;51.418;6.998;2023-04-29T14:20:59;10.73;;;6.03;;
16033;SDS011;8121;51.418;6.998;2023-04-29T14:31:02;11.03;;;2.90;;
16033;SDS011;8121;51.418;6.998;2023-04-29T14:41:03;7.20;;;5.57;;
16033;SDS011;8121;51.418;6.998;2023-04-29T14:51:06;4.37;;;3.87;;
16033;SDS011;8121;51.418;6.998;2023-04-29T15:01:08;4.90;;;4.37;;
16033;SDS011;8121;51.418;6.998;2023-04-29T15:11:12;10.50;;;6.10;;
16033;SDS011;8121;51.418;6.998;2023-04-29T15:21:13;5.43;;;4.90;;
16033;SDS011;8121;51.418;6.998;2023-04-29T15:31:16;5.60;;;4.40;;
16033;SDS011;8121;51.418;6.998;2023-04-29T15:41:18;6.70;;;5.13;;
16033;SDS011;8121;51.418;6.998;2023-04-29T15:51:22;10.73;;;7.00;;
16033;SDS011;8121;51.418;6.998;2023-04-29T16:01:23;8.10;;;5.37;;
16033;SDS011;8121;51.418;6.998;2023-04-29T16:11:28;8.00;;;6.20;;
16033;SDS011;8121;51.418;6.998;2023-04-29T16:21:30;9.60;;;5.40;;
16033;SDS011;8121;51.418;6.998;2023-04-29T16:31:33;3.17;;;2.50;;
16033;SDS011;8121;51.418;6.998;2023-04-29T16:41:34;7.63;;;4.77;;
16033;SDS011;8121;51.418;6.998;2023-04-29T16:51:37;3.53;;;2.03;;
16033;SDS011;8121;51.418;6.998;2023-04-29T17:01:39;6.10;;;3.80;;
16033;SDS011;8121;51.418;6.998;2023-04-29T17:11:42;7.20;;;3.83;;
16033;SDS011;8121;51.418;6.998;2023-04-29T17:21:43;7.03;;;4.90;;
16033;SDS011;8121;51.418;6.998;2023-04-29T17:31:48;2.80;;;2.23;;
16033;SDS011;8121;51.418;6.998;2023-04-29T17:41:58;3.67;;;3.37;;
16033;SDS011;8121;51.418;6.998;2023-04-29T17:52:02;1.80;;;1.70;;
16033;SDS011;8121;51.418;6.998;2023-04-29T18:02:03;4.90;;;3.50;;
16033;SDS011;8121;51.418;6.998;2023-04-29T18:12:06;2.37;;;2.17;;
16033;SDS011;8121;51.418;6.998;2023-04-29T18:22:08;5.00;;;3.40;;
16033;SDS011;8121;51.418;6.998;2023-04-29T18:32:12;3.63;;;3.33;;
16033;SDS011;8121;51.418;6.998;2023-04-29T18:42:14;5.17;;;3.47;;
16033;SDS011;8121;51.418;6.998;2023-04-29T18:52:18;8.73;;;4.83;;
16033;SDS011;8121;51.418;6.998;2023-04-29T19:02:19;3.00;;;2.27;;
16033;SDS011;8121;51.418;6.998;2023-04-29T19:12:23;2.60;;;2.37;;
16033;SDS011;8121;51.418;6.998;2023-04-29T19:22:25;2.10;;;2.00;;
16033;SDS011;8121;51.418;6.998;2023-04-29T19:32:29;2.37;;;2.17;;
16033;SDS011;8121;51.418;6.998;2023-04-29T19:42:31;3.60;;;2.40;;
16033;SDS011;8121;51.418;6.998;2023-04-29T19:52:34;3.80;;;2.87;;
16033;SDS011;8121;51.418;6.998;2023-04-29T20:02:36;7.10;;;4.10;;
16033;SDS011;8121;51.418;6.998;2023-04-29T20:12:39;3.83;;;3.43;;
16033;SDS011;8121;51.418;6.998;2023-04-29T20:22:41;3.73;;;3.43;;
16033;SDS011;8121;51.418;6.998;2023-04-29T20:32:44;10.77;;;6.93;;
16033;SDS011;8121;51.418;6.998;2023-04-29T20:42:46;9.00;;;6.50;;
16033;SDS011;8121;51.418;6.998;2023-04-29T20:52:49;7.70;;;4.87;;
16033;SDS011;8121;51.418;6.998;2023-04-29T21:02:51;10.07;;;6.10;;
16033;SDS011;8121;51.418;6.998;2023-04-29T21:12:54;6.63;;;4.70;;
16033;SDS011;8121;51.418;6.998;2023-04-29T21:22:56;5.23;;;3.87;;
16033;SDS011;8121;51.418;6.998;2023-04-29T21:33:03;4.20;;;3.63;;
16033;SDS011;8121;51.418;6.998;2023-04-29T21:43:05;4.03;;;3.63;;
16033;SDS011;8121;51.418;6.998;2023-04-29T21:53:08;4.47;;;3.40;;
16033;SDS011;8121;51.418;6.998;2023-04-29T22:03:12;6.10;;;2.53;;
16033;SDS011;8121;51.418;6.998;2023-04-29T22:13:16;3.03;;;2.73;;
16033;SDS011;8121;51.418;6.998;2023-04-29T22:23:18;2.40;;;1.93;;
16033;SDS011;8121;51.418;6.998;2023-04-29T22:33:23;4.10;;;3.47;;
16033;SDS011;8121;51.418;6.998;2023-04-29T22:43:24;6.27;;;4.93;;
16033;SDS011;8121;51.418;6.998;2023-04-29T22:53:28;4.57;;;3.87;;
16033;SDS011;8121;51.418;6.998;2023-04-29T23:03:30;7.03;;;4.40;;
16033;SDS011;8121;51.418;6.998;2023-04-29T23:13:33;8.30;;;5.10;;
16033;SDS011;8121;51.418;6.998;2023-04-29T23:23:35;6.90;;;5.40;;
16033;SDS011;8121;51.418;6.998;2023-04-29T23:33:38;10.80;;;6.77;;
16033;SDS011;8121;51.418;6.998;2023-04-29T23:43:40;18.47;;;5.40;;
16033;SDS011;8121;51.418;6.998;2023-04-29T23:53:43;9.50;;;4.80;;
